Time;durP1;ratioP1;P1;durP2;ratioP2;P2;SDS_P1;SDS_P2;PMS_P1;PMS_P2;Temp;Humidity;BMP_temperature;BMP_pressure;BME280_temperature;BME280_humidity;BME280_pressure;Samples;Min_cycle;Max_cycle;Signal;HPM_P1;HPM_P2
2023/04/17 00:01:31;;;;;;;4.63;3.53;;;9.20;68.80;;;;;;5045464;28;46095;-68
2023/04/17 00:03:56;;;;;;;6.00;3.83;;;9.20;69.10;;;;;;5046764;28;46494;-66
2023/04/17 00:06:23;;;;;;;6.87;4.47;;;9.20;69.00;;;;;;5043836;28;46592;-68
2023/04/17 00:08:49;;;;;;;5.40;3.80;;;9.20;69.00;;;;;;5044451;28;46487;-68
2023/04/17 00:11:15;;;;;;;5.97;4.10;;;9.20;68.80;;;;;;5048960;28;46373;-68
2023/04/17 00:13:42;;;;;;;5.00;4.00;;;9.20;68.60;;;;;;5049000;28;46446;-68
2023/04/17 00:16:10;;;;;;;6.87;3.90;;;9.20;68.60;;;;;;5052755;28;46545;-68
2023/04/17 00:18:35;;;;;;;6.13;4.03;;;9.20;68.70;;;;;;5047570;28;46580;-67
2023/04/17 00:21:01;;;;;;;5.10;3.93;;;9.10;68.60;;;;;;5049901;28;46456;-67
2023/04/17 00:23:27;;;;;;;6.70;4.03;;;9.10;68.70;;;;;;5052323;28;46397;-68
2023/04/17 00:25:52;;;;;;;6.97;4.00;;;9.00;68.80;;;;;;5047602;28;46495;-68
2023/04/17 00:28:18;;;;;;;6.10;4.00;;;9.00;68.80;;;;;;5050460;28;46504;-68
2023/04/17 00:30:43;;;;;;;5.77;4.13;;;9.00;68.90;;;;;;5048358;28;47057;-67
2023/04/17 00:33:09;;;;;;;6.63;4.43;;;9.00;68.80;;;;;;5049050;28;46471;-68
2023/04/17 00:35:34;;;;;;;6.80;4.30;;;9.00;68.60;;;;;;5051741;28;46252;-68
2023/04/17 00:38:00;;;;;;;7.10;4.60;;;9.00;68.50;;;;;;5048760;28;45915;-67
2023/04/17 00:40:26;;;;;;;8.10;5.30;;;9.10;68.50;;;;;;5051464;28;47114;-67
2023/04/17 00:42:54;;;;;;;9.10;6.13;;;9.10;68.60;;;;;;5050663;28;46366;-67
2023/04/17 00:45:21;;;;;;;16.33;7.60;;;9.10;68.60;;;;;;5049214;28;46406;-68
2023/04/17 00:47:48;;;;;;;11.27;6.97;;;9.10;68.70;;;;;;5049170;28;47142;-68
2023/04/17 00:50:14;;;;;;;15.10;8.00;;;9.10;68.80;;;;;;5047498;28;46469;-67
2023/04/17 00:52:40;;;;;;;15.37;9.07;;;9.10;68.80;;;;;;5053382;28;46457;-66
2023/04/17 00:55:06;;;;;;;12.83;8.20;;;9.10;68.90;;;;;;5051894;28;46508;-69
2023/04/17 00:57:33;;;;;;;19.43;9.20;;;9.10;68.90;;;;;;5050264;28;46596;-69
2023/04/17 00:59:58;;;;;;;15.50;7.60;;;9.20;68.90;;;;;;5050077;28;46534;-66
2023/04/17 01:02:25;;;;;;;12.60;8.43;;;9.10;68.90;;;;;;5051298;28;45750;-67
2023/04/17 01:04:50;;;;;;;11.97;7.40;;;9.10;68.90;;;;;;5049831;28;46390;-68
2023/04/17 01:07:17;;;;;;;13.87;8.60;;;9.10;69.00;;;;;;5051070;28;46435;-67
2023/04/17 01:09:42;;;;;;;14.20;9.60;;;9.10;69.70;;;;;;5046752;28;46713;-68
2023/04/17 01:12:19;;;;;;;16.60;10.57;;;9.10;69.00;;;;;;5047599;28;46500;-68
2023/04/17 01:14:45;;;;;;;15.60;10.03;;;9.10;69.00;;;;;;5045551;28;46598;-68
2023/04/17 01:17:13;;;;;;;14.43;10.30;;;9.20;69.00;;;;;;5051682;28;45942;-67
2023/04/17 01:19:40;;;;;;;13.43;9.17;;;9.20;69.20;;;;;;5048940;28;46609;-68
2023/04/17 01:22:06;;;;;;;13.67;8.20;;;9.10;69.10;;;;;;5048724;28;46173;-68
2023/04/17 01:24:31;;;;;;;13.13;8.10;;;9.10;69.10;;;;;;5047185;28;46489;-68
2023/04/17 01:26:57;;;;;;;10.03;7.33;;;9.10;69.40;;;;;;5050334;28;45974;-66
2023/04/17 01:29:23;;;;;;;8.40;6.13;;;9.00;69.40;;;;;;5049192;28;46774;-68
2023/04/17 01:31:48;;;;;;;9.57;6.20;;;9.00;69.50;;;;;;5048294;28;46337;-68
2023/04/17 01:34:14;;;;;;;6.90;5.37;;;9.00;69.30;;;;;;5047719;28;46444;-68
2023/04/17 01:36:40;;;;;;;8.30;6.00;;;9.10;69.10;;;;;;5049914;28;46395;-67
2023/04/17 01:39:06;;;;;;;8.80;5.40;;;9.10;69.00;;;;;;5053479;28;47135;-68
2023/04/17 01:41:31;;;;;;;9.73;5.37;;;9.10;68.80;;;;;;5056819;28;46512;-68
2023/04/17 01:43:57;;;;;;;7.80;5.30;;;9.10;68.60;;;;;;5053179;28;46494;-68
2023/04/17 01:46:23;;;;;;;7.17;4.97;;;9.10;68.40;;;;;;5052182;28;46381;-68
2023/04/17 01:48:48;;;;;;;6.13;4.70;;;9.10;68.30;;;;;;5044433;28;46373;-66
2023/04/17 01:51:14;;;;;;;9.07;5.20;;;9.10;68.30;;;;;;5046964;28;46307;-68
2023/04/17 01:53:40;;;;;;;5.20;4.23;;;9.10;68.20;;;;;;5044821;28;46466;-67
2023/04/17 01:56:06;;;;;;;5.17;3.93;;;9.10;69.40;;;;;;5049050;28;46500;-67
2023/04/17 01:58:32;;;;;;;5.43;4.00;;;9.00;68.50;;;;;;5048664;28;46336;-66
2023/04/17 02:00:59;;;;;;;5.30;3.83;;;9.10;68.70;;;;;;5045977;28;46576;-67
2023/04/17 02:03:25;;;;;;;5.30;3.83;;;9.10;68.30;;;;;;5049106;28;45849;-68
2023/04/17 02:05:52;;;;;;;5.03;3.93;;;9.10;68.00;;;;;;5045355;28;46537;-68
2023/04/17 02:08:18;;;;;;;5.20;3.57;;;9.10;68.00;;;;;;5047415;28;46665;-69
2023/04/17 02:10:43;;;;;;;7.53;3.53;;;9.00;68.10;;;;;;5049115;28;46413;-68
2023/04/17 02:13:09;;;;;;;5.37;3.53;;;9.00;67.90;;;;;;5050389;28;46520;-69
2023/04/17 02:15:38;;;;;;;4.90;3.77;;;8.90;68.20;;;;;;5045414;28;46614;-68
2023/04/17 02:18:05;;;;;;;4.63;3.53;;;8.90;68.30;;;;;;5052500;28;46783;-68
2023/04/17 02:20:31;;;;;;;4.07;3.33;;;8.90;68.30;;;;;;5047510;28;46682;-68
2023/04/17 02:23:01;;;;;;;4.67;3.50;;;8.90;68.40;;;;;;5048860;28;46514;-68
2023/04/17 02:25:27;;;;;;;4.47;3.33;;;8.90;68.40;;;;;;5045316;28;46457;-68
2023/04/17 02:27:54;;;;;;;4.50;2.90;;;8.90;68.30;;;;;;5045957;28;49406;-68
2023/04/17 02:30:21;;;;;;;3.20;2.53;;;8.90;68.40;;;;;;5047958;28;46288;-68
2023/04/17 02:32:48;;;;;;;5.40;3.17;;;8.90;68.60;;;;;;5045804;28;46302;-68
2023/04/17 02:35:14;;;;;;;4.50;3.20;;;8.90;68.80;;;;;;5046572;28;46380;-69
2023/04/17 02:37:39;;;;;;;4.83;3.33;;;8.90;69.00;;;;;;5047036;28;47925;-68
2023/04/17 02:40:06;;;;;;;4.63;3.50;;;8.90;68.70;;;;;;5048622;28;45924;-68
2023/04/17 02:42:32;;;;;;;5.63;3.50;;;8.90;68.60;;;;;;5047601;28;46417;-68
2023/04/17 02:44:58;;;;;;;6.80;3.30;;;8.90;68.60;;;;;;5047696;28;45902;-68
2023/04/17 02:47:23;;;;;;;6.80;3.80;;;8.90;68.40;;;;;;5052198;28;46473;-68
2023/04/17 02:49:49;;;;;;;4.17;3.17;;;8.90;68.20;;;;;;5044387;28;46758;-68
2023/04/17 02:52:15;;;;;;;3.50;2.87;;;8.90;68.00;;;;;;5047253;28;46448;-67
2023/04/17 02:54:41;;;;;;;4.40;3.47;;;8.80;67.90;;;;;;5045888;28;46498;-68
2023/04/17 02:57:06;;;;;;;4.87;3.07;;;8.70;68.20;;;;;;5044726;28;46994;-68
2023/04/17 02:59:32;;;;;;;4.63;3.40;;;8.60;68.50;;;;;;5044743;28;46255;-66
2023/04/17 03:01:58;;;;;;;5.23;3.40;;;8.50;68.80;;;;;;5044537;28;46384;-66
2023/04/17 03:04:26;;;;;;;4.47;3.40;;;8.40;69.00;;;;;;5049339;28;46495;-68
2023/04/17 03:06:52;;;;;;;4.40;3.43;;;8.40;68.90;;;;;;5048184;28;47193;-67
2023/04/17 03:09:21;;;;;;;4.47;3.57;;;8.40;68.80;;;;;;5048262;28;46041;-68
2023/04/17 03:11:47;;;;;;;4.40;3.40;;;8.50;68.80;;;;;;5050645;28;46373;-67
2023/04/17 03:14:12;;;;;;;4.27;3.33;;;8.50;68.80;;;;;;5048744;28;46074;-67
2023/04/17 03:16:38;;;;;;;5.40;3.33;;;8.50;68.70;;;;;;5047507;28;46376;-67
2023/04/17 03:19:03;;;;;;;4.47;3.33;;;8.50;68.50;;;;;;5044113;28;45872;-68
2023/04/17 03:21:30;;;;;;;6.63;3.43;;;8.60;68.60;;;;;;5046847;28;46327;-67
2023/04/17 03:23:56;;;;;;;3.80;3.20;;;8.60;68.60;;;;;;5046307;28;46549;-68
2023/04/17 03:26:21;;;;;;;4.60;3.53;;;8.60;68.70;;;;;;5044544;28;46096;-68
2023/04/17 03:28:47;;;;;;;4.40;3.20;;;8.50;68.70;;;;;;5047433;28;46251;-68
2023/04/17 03:31:12;;;;;;;5.30;3.13;;;8.50;68.60;;;;;;5047246;28;46497;-67
2023/04/17 03:33:38;;;;;;;3.70;2.80;;;8.50;68.40;;;;;;5039626;28;45935;-67
2023/04/17 03:36:04;;;;;;;4.30;3.10;;;8.50;68.60;;;;;;5052560;28;47362;-66
2023/04/17 03:38:30;;;;;;;4.63;3.40;;;8.50;68.50;;;;;;5046074;28;46605;-65
2023/04/17 03:40:56;;;;;;;4.50;3.67;;;8.50;68.40;;;;;;5043977;28;46576;-67
2023/04/17 03:43:21;;;;;;;4.17;3.47;;;8.60;68.30;;;;;;5048568;28;46468;-66
2023/04/17 03:45:47;;;;;;;4.20;3.30;;;8.50;68.00;;;;;;5042300;28;46484;-66
2023/04/17 03:48:13;;;;;;;4.60;3.70;;;8.50;68.00;;;;;;5048989;28;46678;-66
2023/04/17 03:50:38;;;;;;;4.10;3.10;;;8.50;67.90;;;;;;5048472;28;46636;-66
2023/04/17 03:53:04;;;;;;;4.10;3.17;;;8.60;67.90;;;;;;5052175;28;46615;-66
2023/04/17 03:55:29;;;;;;;5.73;3.50;;;8.60;67.70;;;;;;5053891;28;46437;-66
2023/04/17 03:57:55;;;;;;;4.80;3.80;;;8.60;67.70;;;;;;5053670;28;46919;-66
2023/04/17 04:00:21;;;;;;;4.07;3.47;;;8.70;67.70;;;;;;5051578;28;46424;-67
2023/04/17 04:02:47;;;;;;;4.80;3.63;;;8.60;67.60;;;;;;5053835;28;46334;-67
2023/04/17 04:05:13;;;;;;;5.27;3.50;;;8.70;67.70;;;;;;5051158;28;46664;-66
2023/04/17 04:07:39;;;;;;;4.53;3.37;;;8.70;67.70;;;;;;5051680;28;46361;-66
2023/04/17 04:10:05;;;;;;;6.40;3.33;;;8.70;67.60;;;;;;5048267;28;46394;-66
2023/04/17 04:12:31;;;;;;;4.87;3.33;;;8.70;67.80;;;;;;5054178;28;46306;-65
2023/04/17 04:14:56;;;;;;;5.63;3.77;;;8.60;67.80;;;;;;5051229;28;47279;-65
2023/04/17 04:17:22;;;;;;;4.27;3.37;;;8.60;67.60;;;;;;5053438;28;45800;-65
2023/04/17 04:19:48;;;;;;;5.27;3.63;;;8.70;67.90;;;;;;5047849;28;46527;-65
2023/04/17 04:22:13;;;;;;;4.40;3.33;;;8.70;67.60;;;;;;5047539;28;46391;-65
2023/04/17 04:24:39;;;;;;;5.97;4.40;;;8.70;67.60;;;;;;5054689;28;46341;-65
2023/04/17 04:27:05;;;;;;;4.77;3.70;;;8.70;67.60;;;;;;5052092;28;45853;-65
2023/04/17 04:29:32;;;;;;;5.27;4.10;;;8.70;67.60;;;;;;5052787;28;45782;-64
2023/04/17 04:31:57;;;;;;;6.10;4.00;;;8.70;67.60;;;;;;5049823;28;46589;-65
2023/04/17 04:34:24;;;;;;;5.60;4.10;;;8.70;67.20;;;;;;5051075;28;46268;-65
2023/04/17 04:36:53;;;;;;;5.57;3.90;;;8.80;67.20;;;;;;5052427;28;46507;-64
2023/04/17 04:39:19;;;;;;;4.47;3.43;;;8.80;67.10;;;;;;5051754;28;46366;-65
2023/04/17 04:41:49;;;;;;;4.47;3.70;;;8.80;67.20;;;;;;5053944;28;46551;-65
2023/04/17 04:44:15;;;;;;;5.27;3.90;;;8.70;67.00;;;;;;5050189;28;47125;-65
2023/04/17 04:46:41;;;;;;;5.10;4.03;;;8.80;67.20;;;;;;5050025;28;46216;-65
2023/04/17 04:49:06;;;;;;;4.77;3.27;;;8.80;67.00;;;;;;5049889;28;46365;-64
2023/04/17 04:51:33;;;;;;;7.10;3.80;;;8.80;66.90;;;;;;5051807;28;46613;-64
2023/04/17 04:53:59;;;;;;;4.67;3.67;;;8.80;66.80;;;;;;5050929;28;46364;-65
2023/04/17 04:56:25;;;;;;;5.03;4.10;;;8.80;66.50;;;;;;5051782;28;46385;-65
2023/04/17 04:58:50;;;;;;;5.20;3.73;;;8.80;66.40;;;;;;5048307;28;46499;-65
2023/04/17 05:01:16;;;;;;;5.57;4.23;;;8.80;66.30;;;;;;5054450;28;46363;-65
2023/04/17 05:03:43;;;;;;;4.50;3.60;;;8.70;66.40;;;;;;5044818;28;46678;-65
2023/04/17 05:06:10;;;;;;;4.17;3.30;;;8.80;66.30;;;;;;5050392;28;46326;-65
2023/04/17 05:08:36;;;;;;;5.90;4.70;;;8.80;66.00;;;;;;5050432;28;46831;-65
2023/04/17 05:11:02;;;;;;;6.33;4.50;;;8.80;66.10;;;;;;5052402;28;46345;-65
2023/04/17 05:13:29;;;;;;;8.40;4.47;;;8.80;65.90;;;;;;5050057;28;46489;-65
2023/04/17 05:15:55;;;;;;;5.47;4.40;;;8.80;65.90;;;;;;5049475;28;47497;-65
2023/04/17 05:18:21;;;;;;;6.10;4.83;;;8.80;65.80;;;;;;5052089;28;46608;-65
2023/04/17 05:20:46;;;;;;;6.20;4.80;;;8.90;65.80;;;;;;5048323;28;46464;-64
2023/04/17 05:23:12;;;;;;;7.50;4.67;;;9.00;65.60;;;;;;5050768;28;46638;-65
2023/04/17 05:25:38;;;;;;;5.93;4.50;;;9.00;66.60;;;;;;5054375;28;46472;-65
2023/04/17 05:28:05;;;;;;;6.73;4.53;;;9.00;65.20;;;;;;5050648;28;46405;-65
2023/04/17 05:30:30;;;;;;;11.50;5.90;;;9.10;64.80;;;;;;5049528;28;46430;-65
2023/04/17 05:32:57;;;;;;;7.13;5.17;;;9.10;64.60;;;;;;5049069;28;46505;-65
2023/04/17 05:35:23;;;;;;;7.20;5.27;;;9.20;64.80;;;;;;5055436;28;46350;-64
2023/04/17 05:37:48;;;;;;;6.90;4.80;;;9.20;64.70;;;;;;5049298;28;46379;-65
2023/04/17 05:40:14;;;;;;;6.90;4.90;;;9.30;64.80;;;;;;5050514;28;46278;-65
2023/04/17 05:42:40;;;;;;;6.70;4.70;;;9.20;64.70;;;;;;5049457;28;46589;-64
2023/04/17 05:45:06;;;;;;;12.77;9.63;;;9.20;64.70;;;;;;5051888;28;45773;-65
2023/04/17 05:47:32;;;;;;;16.10;11.60;;;9.20;64.70;;;;;;5060133;28;45810;-65
2023/04/17 05:49:58;;;;;;;14.27;11.80;;;9.20;65.10;;;;;;5050503;28;46581;-66
2023/04/17 05:52:24;;;;;;;13.40;11.13;;;9.20;65.20;;;;;;5049857;28;46814;-64
2023/04/17 05:54:50;;;;;;;11.00;9.90;;;9.20;65.00;;;;;;5047113;28;46362;-66
2023/04/17 05:57:16;;;;;;;9.03;8.10;;;9.30;64.80;;;;;;5050281;28;46531;-66
2023/04/17 05:59:42;;;;;;;7.23;5.80;;;9.30;64.80;;;;;;5042527;28;46393;-66
2023/04/17 06:02:08;;;;;;;9.37;6.80;;;9.30;64.80;;;;;;5046135;28;46781;-67
2023/04/17 06:04:34;;;;;;;7.07;5.83;;;9.40;64.90;;;;;;5049990;28;45918;-65
2023/04/17 06:07:01;;;;;;;7.53;6.20;;;9.50;64.90;;;;;;5046492;28;46366;-65
2023/04/17 06:09:27;;;;;;;8.33;5.50;;;9.50;64.30;;;;;;5045818;28;46625;-65
2023/04/17 06:11:53;;;;;;;7.10;5.43;;;9.60;64.00;;;;;;5047702;28;46397;-66
2023/04/17 06:14:18;;;;;;;7.17;5.27;;;9.70;63.80;;;;;;5048416;28;46400;-65
2023/04/17 06:16:44;;;;;;;7.57;5.27;;;9.90;63.70;;;;;;5046746;28;46543;-67
2023/04/17 06:19:10;;;;;;;22.60;14.30;;;10.00;62.70;;;;;;5048181;28;46588;-65
2023/04/17 06:21:35;;;;;;;45.97;27.03;;;10.10;62.80;;;;;;5049507;28;47111;-66
2023/04/17 06:24:01;;;;;;;19.60;13.00;;;10.20;62.40;;;;;;5049289;28;46675;-66
2023/04/17 06:26:27;;;;;;;17.30;11.83;;;10.30;62.10;;;;;;5044837;28;45834;-67
2023/04/17 06:28:53;;;;;;;9.73;7.77;;;10.50;61.70;;;;;;5046557;28;46514;-66
2023/04/17 06:31:19;;;;;;;8.27;7.07;;;10.70;61.50;;;;;;5052586;28;46281;-66
2023/04/17 06:33:46;;;;;;;10.30;6.10;;;10.90;61.30;;;;;;5049363;28;46726;-65
2023/04/17 06:36:12;;;;;;;7.00;5.23;;;11.00;61.00;;;;;;5044995;28;45863;-66
2023/04/17 06:38:37;;;;;;;7.27;5.50;;;11.20;60.80;;;;;;5051212;28;45761;-65
2023/04/17 06:41:03;;;;;;;6.93;5.40;;;11.40;60.40;;;;;;5047844;28;47287;-66
2023/04/17 06:43:29;;;;;;;8.10;5.83;;;11.50;60.10;;;;;;5050078;28;46461;-66
2023/04/17 06:45:54;;;;;;;7.43;5.40;;;11.60;60.00;;;;;;5046907;28;46457;-65
2023/04/17 06:48:20;;;;;;;8.00;5.83;;;11.80;59.50;;;;;;5042351;28;46679;-65
2023/04/17 06:50:45;;;;;;;9.13;6.13;;;12.00;59.10;;;;;;5045579;28;47103;-66
2023/04/17 06:53:11;;;;;;;11.40;6.60;;;12.10;59.40;;;;;;5044855;28;46544;-66
2023/04/17 06:55:37;;;;;;;7.97;5.30;;;12.10;59.00;;;;;;5042609;28;46355;-66
2023/04/17 06:58:03;;;;;;;8.77;6.20;;;12.00;59.00;;;;;;5048552;28;46522;-66
2023/04/17 07:00:29;;;;;;;13.20;8.50;;;11.70;59.30;;;;;;5046208;28;46616;-65
2023/04/17 07:02:55;;;;;;;10.83;8.03;;;11.70;59.70;;;;;;5046520;28;46367;-66
2023/04/17 07:05:21;;;;;;;17.03;10.20;;;11.70;59.30;;;;;;5048947;28;46441;-64
2023/04/17 07:07:47;;;;;;;12.53;8.77;;;11.70;58.90;;;;;;5047873;28;46362;-66
2023/04/17 07:10:14;;;;;;;15.50;9.70;;;11.70;59.40;;;;;;5042061;28;46488;-65
2023/04/17 07:12:40;;;;;;;13.67;9.57;;;11.70;59.40;;;;;;5046970;28;46394;-66
2023/04/17 07:15:06;;;;;;;17.13;10.47;;;11.80;58.90;;;;;;5049716;28;46486;-67
2023/04/17 07:17:32;;;;;;;16.17;9.90;;;11.70;59.00;;;;;;5046705;28;46426;-68
2023/04/17 07:19:57;;;;;;;16.30;10.77;;;11.70;59.00;;;;;;5044774;28;46593;-67
2023/04/17 07:22:23;;;;;;;14.47;10.67;;;11.90;58.70;;;;;;5042303;28;46464;-66
2023/04/17 07:24:49;;;;;;;17.20;10.70;;;11.70;58.70;;;;;;5043735;28;46409;-66
2023/04/17 07:27:14;;;;;;;16.67;10.57;;;11.50;58.80;;;;;;5043196;28;45879;-66
2023/04/17 07:29:40;;;;;;;17.50;10.97;;;11.30;59.40;;;;;;5042716;28;47215;-65
2023/04/17 07:32:06;;;;;;;17.30;10.57;;;11.10;59.70;;;;;;5047503;28;46439;-67
2023/04/17 07:34:33;;;;;;;18.43;10.73;;;11.00;60.00;;;;;;5046211;28;46468;-67
2023/04/17 07:36:59;;;;;;;16.63;10.50;;;10.80;59.60;;;;;;5047594;28;46546;-67
2023/04/17 07:39:29;;;;;;;24.30;11.43;;;10.70;60.00;;;;;;5046465;28;46421;-66
2023/04/17 07:41:55;;;;;;;22.07;14.07;;;10.50;60.50;;;;;;5045097;28;46383;-67
2023/04/17 07:44:21;;;;;;;20.67;12.17;;;10.40;60.70;;;;;;5043090;28;46639;-67
2023/04/17 07:46:46;;;;;;;21.50;12.87;;;10.40;60.90;;;;;;5042448;28;46575;-67
2023/04/17 07:49:12;;;;;;;20.60;12.10;;;10.50;60.80;;;;;;5044466;28;46508;-69
2023/04/17 07:51:39;;;;;;;19.07;11.17;;;10.60;60.30;;;;;;5045630;28;46403;-67
2023/04/17 07:54:05;;;;;;;20.80;12.17;;;10.80;60.00;;;;;;5045913;28;46318;-67
2023/04/17 07:56:33;;;;;;;17.87;11.27;;;10.90;59.50;;;;;;5044572;28;46442;-67
2023/04/17 07:58:59;;;;;;;17.40;11.63;;;10.90;59.40;;;;;;5049394;28;47329;-65
2023/04/17 08:01:25;;;;;;;19.07;12.67;;;10.90;59.40;;;;;;5044942;28;46370;-65
2023/04/17 08:03:52;;;;;;;16.93;11.13;;;11.00;59.10;;;;;;5044274;28;46436;-64
2023/04/17 08:06:18;;;;;;;21.73;13.67;;;11.10;58.50;;;;;;5045962;28;46565;-67
2023/04/17 08:08:46;;;;;;;18.33;11.93;;;11.30;57.70;;;;;;5046624;28;47152;-67
2023/04/17 08:11:13;;;;;;;14.60;10.43;;;11.40;57.40;;;;;;5044799;28;46388;-67
2023/04/17 08:13:39;;;;;;;15.27;9.67;;;11.30;57.40;;;;;;5049371;28;46136;-68
2023/04/17 08:16:06;;;;;;;18.87;11.53;;;11.40;57.40;;;;;;5045078;28;46431;-67
2023/04/17 08:18:32;;;;;;;16.77;10.73;;;11.40;57.10;;;;;;5045092;28;46563;-66
2023/04/17 08:20:58;;;;;;;19.17;12.60;;;11.30;57.10;;;;;;5047644;28;46423;-68
2023/04/17 08:23:23;;;;;;;18.67;12.30;;;11.20;57.90;;;;;;5048988;28;45828;-67
2023/04/17 08:25:49;;;;;;;19.17;12.83;;;11.00;57.90;;;;;;5048910;28;46485;-65
2023/04/17 08:28:15;;;;;;;85.67;40.43;;;10.90;58.00;;;;;;5043510;28;46950;-65
2023/04/17 08:30:40;;;;;;;60.83;35.77;;;11.10;57.90;;;;;;5045461;28;46296;-66
2023/04/17 08:33:06;;;;;;;32.43;18.97;;;11.20;57.30;;;;;;5046714;28;46547;-65
2023/04/17 08:35:32;;;;;;;53.37;28.90;;;11.40;57.00;;;;;;5046838;28;46488;-65
2023/04/17 08:37:58;;;;;;;24.40;15.40;;;11.80;56.20;;;;;;5048611;28;46446;-67
2023/04/17 08:40:25;;;;;;;15.50;11.70;;;11.90;54.70;;;;;;5046063;28;45885;-66
2023/04/17 08:42:52;;;;;;;17.03;10.10;;;11.90;55.30;;;;;;5048221;28;46493;-65
2023/04/17 08:45:19;;;;;;;14.30;10.80;;;11.80;55.40;;;;;;5048581;28;46509;-66
2023/04/17 08:47:45;;;;;;;16.67;12.00;;;11.90;54.90;;;;;;5046369;28;49353;-66
2023/04/17 08:50:15;;;;;;;16.07;11.53;;;11.90;54.60;;;;;;5044001;28;46416;-67
2023/04/17 08:52:45;;;;;;;17.33;12.00;;;12.10;53.60;;;;;;5049681;28;46461;-64
2023/04/17 08:55:16;;;;;;;14.83;10.40;;;12.40;53.80;;;;;;5048817;28;46816;-67
2023/04/17 08:58:02;;;;;;;11.90;8.00;;;12.50;52.90;;;;;;5047494;28;46124;-67
2023/04/17 09:00:33;;;;;;;10.07;7.67;;;12.40;52.80;;;;;;5050710;28;46464;-66
2023/04/17 09:03:00;;;;;;;13.13;9.17;;;12.20;53.60;;;;;;5048323;28;46499;-65
2023/04/17 09:05:35;;;;;;;14.80;9.17;;;11.90;53.40;;;;;;5045703;28;46526;-66
2023/04/17 09:08:20;;;;;;;10.63;8.33;;;11.90;53.30;;;;;;5049540;28;46605;-66
2023/04/17 09:10:47;;;;;;;11.50;8.10;;;12.10;53.40;;;;;;5047627;28;46409;-67
2023/04/17 09:13:15;;;;;;;10.50;8.20;;;12.40;52.20;;;;;;5045844;28;46692;-66
2023/04/17 09:15:42;;;;;;;10.53;7.93;;;12.60;50.80;;;;;;5044109;28;46394;-66
2023/04/17 09:18:26;;;;;;;10.33;8.10;;;12.70;50.60;;;;;;5046425;28;46363;-68
2023/04/17 09:20:51;;;;;;;9.53;7.77;;;12.70;50.00;;;;;;5046652;28;45855;-68
2023/04/17 09:23:18;;;;;;;9.87;7.27;;;13.00;49.40;;;;;;5046039;28;46549;-66
2023/04/17 09:25:45;;;;;;;9.13;6.37;;;13.30;48.00;;;;;;5045009;28;46558;-68
2023/04/17 09:28:12;;;;;;;8.87;6.13;;;13.30;47.80;;;;;;5049122;28;46923;-67
2023/04/17 09:30:39;;;;;;;10.13;7.10;;;13.30;48.10;;;;;;5045073;28;46724;-66
2023/04/17 09:33:07;;;;;;;10.17;6.30;;;13.50;47.50;;;;;;5046190;28;46540;-66
2023/04/17 09:35:34;;;;;;;9.87;7.37;;;13.70;46.10;;;;;;5046943;28;46160;-66
2023/04/17 09:38:00;;;;;;;9.50;6.60;;;14.00;45.70;;;;;;5045618;28;47271;-63
2023/04/17 09:40:34;;;;;;;9.80;6.93;;;14.10;45.20;;;;;;5047610;28;46459;-65
2023/04/17 09:43:05;;;;;;;8.30;6.43;;;14.30;43.60;;;;;;5049535;28;46642;-64
2023/04/17 09:45:35;;;;;;;9.47;6.87;;;14.50;43.20;;;;;;5044880;28;46428;-65
2023/04/17 09:48:10;;;;;;;10.93;7.60;;;14.40;42.70;;;;;;5046275;28;46678;-68
2023/04/17 09:50:36;;;;;;;9.17;6.40;;;14.40;42.50;;;;;;5046612;28;46766;-68
2023/04/17 09:53:03;;;;;;;12.07;7.50;;;14.30;42.40;;;;;;5047759;28;46444;-67
2023/04/17 09:55:35;;;;;;;8.97;6.80;;;14.00;42.40;;;;;;5045788;28;46551;-68
2023/04/17 09:58:03;;;;;;;8.10;6.40;;;14.30;42.40;;;;;;5047534;28;46415;-68
2023/04/17 10:00:29;;;;;;;8.23;6.30;;;14.40;39.60;;;;;;5047710;28;46470;-67
2023/04/17 10:02:56;;;;;;;9.77;6.37;;;14.40;39.60;;;;;;5047347;28;46509;-66
2023/04/17 10:05:31;;;;;;;11.10;6.67;;;14.50;39.40;;;;;;5048865;28;46594;-67
2023/04/17 10:07:56;;;;;;;10.80;8.03;;;14.60;40.50;;;;;;5049738;28;46017;-67
2023/04/17 10:10:23;;;;;;;10.57;8.53;;;14.40;39.90;;;;;;5047770;28;46400;-65
2023/04/17 10:12:51;;;;;;;10.73;8.00;;;14.00;40.60;;;;;;5042210;28;46771;-66
2023/04/17 10:15:18;;;;;;;10.50;8.20;;;13.90;40.40;;;;;;5049059;28;46604;-66
2023/04/17 10:17:45;;;;;;;11.37;8.47;;;13.80;41.10;;;;;;5047653;28;47253;-65
2023/04/17 10:20:16;;;;;;;10.50;7.93;;;13.50;41.70;;;;;;5050648;28;46432;-66
2023/04/17 10:22:53;;;;;;;12.33;9.37;;;13.80;40.80;;;;;;5045291;28;46489;-65
2023/04/17 10:25:24;;;;;;;11.17;8.53;;;13.70;40.40;;;;;;5047245;28;46519;-66
2023/04/17 10:27:58;;;;;;;10.50;8.27;;;13.90;40.00;;;;;;5047127;28;46204;-66
2023/04/17 10:30:51;;;;;;;11.50;8.20;;;14.00;40.10;;;;;;5046693;28;46639;-66
2023/04/17 10:33:20;;;;;;;10.10;7.97;;;13.90;39.90;;;;;;5045822;28;45802;-65
2023/04/17 10:35:46;;;;;;;10.57;8.30;;;13.90;39.90;;;;;;5044136;28;46538;-65
2023/04/17 10:38:12;;;;;;;12.07;9.13;;;13.80;39.80;;;;;;5043672;28;46788;-66
2023/04/17 10:40:38;;;;;;;11.90;9.33;;;13.70;39.40;;;;;;5045334;28;46525;-66
2023/04/17 10:43:12;;;;;;;13.17;9.50;;;13.60;39.40;;;;;;5049128;28;46569;-64
2023/04/17 10:45:55;;;;;;;11.27;8.77;;;13.40;40.30;;;;;;5044099;28;46425;-65
2023/04/17 10:48:34;;;;;;;10.27;8.33;;;13.80;39.80;;;;;;5045376;28;46899;-67
2023/04/17 10:51:20;;;;;;;10.30;8.13;;;13.90;39.60;;;;;;5048587;28;46369;-67
2023/04/17 10:53:48;;;;;;;12.30;7.60;;;14.10;39.10;;;;;;5043787;28;46358;-66
2023/04/17 10:56:38;;;;;;;12.70;7.90;;;13.90;39.20;;;;;;5046726;28;46486;-66
2023/04/17 10:59:08;;;;;;;10.03;7.03;;;14.00;38.60;;;;;;5047129;28;46382;-66
2023/04/17 11:01:38;;;;;;;10.60;8.17;;;14.40;37.80;;;;;;5045265;28;46567;-63
2023/04/17 11:04:05;;;;;;;12.13;8.40;;;14.50;37.60;;;;;;5043711;28;45887;-65
2023/04/17 11:06:32;;;;;;;10.37;6.90;;;14.30;38.00;;;;;;5044536;28;46740;-67
2023/04/17 11:08:59;;;;;;;10.60;7.10;;;14.00;38.40;;;;;;5046146;28;47102;-66
2023/04/17 11:11:25;;;;;;;9.90;6.53;;;13.90;37.90;;;;;;5050343;28;46460;-68
2023/04/17 11:13:51;;;;;;;9.13;6.93;;;13.80;38.50;;;;;;5051872;28;46400;-66
2023/04/17 11:16:18;;;;;;;8.37;6.40;;;13.40;38.70;;;;;;5043412;28;46003;-67
2023/04/17 11:18:44;;;;;;;8.30;6.50;;;13.50;39.40;;;;;;5044517;28;46177;-67
2023/04/17 11:21:14;;;;;;;8.63;6.63;;;13.60;38.90;;;;;;5045264;28;46819;-70
2023/04/17 11:23:40;;;;;;;8.23;6.17;;;13.90;38.30;;;;;;5044095;28;46416;-68
2023/04/17 11:26:06;;;;;;;9.60;6.77;;;13.90;38.00;;;;;;5045537;28;46163;-65
2023/04/17 11:28:35;;;;;;;9.30;6.63;;;13.80;37.20;;;;;;5044880;28;47016;-65
2023/04/17 11:31:00;;;;;;;11.10;7.30;;;13.80;37.30;;;;;;5049970;28;47251;-66
2023/04/17 11:33:27;;;;;;;8.20;6.30;;;13.80;37.20;;;;;;5045248;28;46530;-64
2023/04/17 11:35:53;;;;;;;8.63;6.70;;;14.00;37.10;;;;;;5045307;28;46580;-65
2023/04/17 11:38:22;;;;;;;13.90;7.33;;;14.20;36.20;;;;;;5042590;28;46412;-66
2023/04/17 11:40:57;;;;;;;12.37;6.27;;;14.60;35.60;;;;;;5046919;28;46380;-65
2023/04/17 11:43:24;;;;;;;8.47;6.37;;;14.60;35.20;;;;;;5046337;28;46401;-65
2023/04/17 11:45:55;;;;;;;8.57;7.00;;;14.60;34.90;;;;;;5047045;28;46464;-66
2023/04/17 11:48:23;;;;;;;9.73;6.60;;;14.50;35.20;;;;;;5050055;28;46465;-67
2023/04/17 11:50:52;;;;;;;10.43;7.50;;;14.50;35.00;;;;;;5048836;28;46443;-66
2023/04/17 11:53:18;;;;;;;9.13;6.67;;;14.50;36.10;;;;;;5044948;28;45931;-66
2023/04/17 11:55:44;;;;;;;9.37;6.23;;;14.70;35.20;;;;;;5044478;28;46403;-65
2023/04/17 11:58:12;;;;;;;9.13;6.03;;;14.90;34.00;;;;;;5044657;28;46407;-65
2023/04/17 12:00:39;;;;;;;9.40;6.43;;;14.70;32.90;;;;;;5043582;28;46624;-66
2023/04/17 12:03:32;;;;;;;9.70;6.20;;;15.00;33.30;;;;;;5046969;28;46635;-67
2023/04/17 12:06:03;;;;;;;8.23;6.20;;;14.80;32.20;;;;;;5042560;28;45843;-66
2023/04/17 12:08:29;;;;;;;9.03;7.37;;;15.10;32.70;;;;;;5048561;28;46031;-65
2023/04/17 12:10:56;;;;;;;8.17;6.33;;;15.10;32.00;;;;;;5049815;28;46393;-68
2023/04/17 12:13:23;;;;;;;8.90;6.90;;;15.10;31.10;;;;;;5047694;28;46379;-67
2023/04/17 12:15:49;;;;;;;8.70;7.03;;;15.20;31.30;;;;;;5045860;28;46594;-67
2023/04/17 12:18:15;;;;;;;8.30;6.30;;;15.30;31.00;;;;;;5050075;28;46057;-66
2023/04/17 12:20:41;;;;;;;8.90;6.87;;;15.40;31.20;;;;;;5047912;28;46195;-67
2023/04/17 12:23:06;;;;;;;7.93;6.70;;;15.60;30.70;;;;;;5050772;28;46418;-67
2023/04/17 12:25:33;;;;;;;8.60;6.73;;;15.70;30.00;;;;;;5046934;28;46435;-65
2023/04/17 12:27:59;;;;;;;9.63;7.27;;;15.80;30.10;;;;;;5047740;28;46366;-66
2023/04/17 12:30:28;;;;;;;8.47;6.47;;;15.80;30.10;;;;;;5048418;28;46361;-66
2023/04/17 12:32:55;;;;;;;9.10;6.93;;;16.00;31.60;;;;;;5050270;28;46461;-67
2023/04/17 12:35:22;;;;;;;9.30;7.13;;;16.10;30.50;;;;;;5046414;28;46509;-67
2023/04/17 12:37:50;;;;;;;9.73;7.30;;;16.20;30.50;;;;;;5049781;28;47507;-66
2023/04/17 12:40:21;;;;;;;8.67;7.17;;;16.20;30.50;;;;;;5046640;28;46631;-66
2023/04/17 12:42:47;;;;;;;8.43;7.10;;;15.80;30.10;;;;;;5048691;28;46454;-67
2023/04/17 12:45:14;;;;;;;9.80;7.30;;;15.70;30.00;;;;;;5047949;28;46663;-66